sensor_id;sensor_type;location;lat;lon;timestamp;pressure;altitude;pressure_sealevel;temperature;humidity
71361;BME280;59166;48.908;1.870;2022-10-03T00:03:30;101421.66;;;11.01;100.00
71361;BME280;59166;48.908;1.870;2022-10-03T00:09:13;101431.66;;;11.00;100.00
71361;BME280;59166;48.908;1.870;2022-10-03T00:14:23;101429.91;;;10.94;100.00
71361;BME280;59166;48.908;1.870;2022-10-03T00:19:37;101434.59;;;10.87;99.92
71361;BME280;59166;48.908;1.870;2022-10-03T00:24:52;101435.16;;;10.77;98.84
71361;BME280;59166;48.908;1.870;2022-10-03T00:30:04;101439.84;;;10.70;99.37
71361;BME280;59166;48.908;1.870;2022-10-03T00:35:23;101439.84;;;10.70;100.00
71361;BME280;59166;48.908;1.870;2022-10-03T00:46:33;101424.91;;;10.68;100.00
71361;BME280;59166;48.908;1.870;2022-10-03T00:51:53;101435.69;;;10.68;100.00
71361;BME280;59166;48.908;1.870;2022-10-03T00:57:16;101443.44;;;10.53;100.00
71361;BME280;59166;48.908;1.870;2022-10-03T01:02:35;101442.72;;;10.46;100.00
71361;BME280;59166;48.908;1.870;2022-10-03T01:08:19;101447.03;;;10.35;100.00
71361;BME280;59166;48.908;1.870;2022-10-03T01:14:02;101439.16;;;10.33;99.68
71361;BME280;59166;48.908;1.870;2022-10-03T01:19:27;101436.81;;;10.25;99.21
71361;BME280;59166;48.908;1.870;2022-10-03T01:24:53;101443.63;;;10.28;100.00
71361;BME280;59166;48.908;1.870;2022-10-03T01:30:14;101444.34;;;10.35;100.00
71361;BME280;59166;48.908;1.870;2022-10-03T01:35:25;101440.84;;;10.05;100.00
71361;BME280;59166;48.908;1.870;2022-10-03T01:40:50;101444.41;;;9.87;100.00
71361;BME280;59166;48.908;1.870;2022-10-03T01:46:04;101428.19;;;9.87;99.86
71361;BME280;59166;48.908;1.870;2022-10-03T01:51:09;101431.22;;;9.79;100.00
71361;BME280;59166;48.908;1.870;2022-10-03T01:56:17;101429.28;;;9.68;98.57
71361;BME280;59166;48.908;1.870;2022-10-03T02:01:25;101431.84;;;9.26;98.61
71361;BME280;59166;48.908;1.870;2022-10-03T02:06:50;101430.19;;;9.25;99.76
71361;BME280;59166;48.908;1.870;2022-10-03T02:12:03;101430.34;;;9.30;99.19
71361;BME280;59166;48.908;1.870;2022-10-03T02:17:33;101426.75;;;9.18;100.00
71361;BME280;59166;48.908;1.870;2022-10-03T02:22:45;101421.94;;;9.02;98.20
71361;BME280;59166;48.908;1.870;2022-10-03T02:34:06;101425.09;;;8.99;99.06
71361;BME280;59166;48.908;1.870;2022-10-03T02:45:29;101434.97;;;8.80;99.42
71361;BME280;59166;48.908;1.870;2022-10-03T02:51:32;101428.53;;;8.81;100.00
71361;BME280;59166;48.908;1.870;2022-10-03T02:57:26;101427.50;;;8.82;99.70
71361;BME280;59166;48.908;1.870;2022-10-03T03:14:02;101420.72;;;8.98;100.00
71361;BME280;59166;48.908;1.870;2022-10-03T03:19:28;101416.09;;;9.05;100.00
71361;BME280;59166;48.908;1.870;2022-10-03T03:25:25;101410.81;;;9.17;100.00
71361;BME280;59166;48.908;1.870;2022-10-03T03:30:53;101417.91;;;9.29;100.00
71361;BME280;59166;48.908;1.870;2022-10-03T03:36:21;101411.63;;;9.17;100.00
71361;BME280;59166;48.908;1.870;2022-10-03T03:47:14;101418.28;;;9.33;100.00
71361;BME280;59166;48.908;1.870;2022-10-03T03:52:35;101422.31;;;9.42;100.00
71361;BME280;59166;48.908;1.870;2022-10-03T03:57:56;101425.84;;;9.43;100.00
71361;BME280;59166;48.908;1.870;2022-10-03T04:03:21;101429.16;;;9.45;100.00
71361;BME280;59166;48.908;1.870;2022-10-03T04:08:36;101421.06;;;9.45;100.00
71361;BME280;59166;48.908;1.870;2022-10-03T04:19:49;101428.00;;;9.52;100.00
71361;BME280;59166;48.908;1.870;2022-10-03T04:25:18;101430.41;;;9.60;100.00
71361;BME280;59166;48.908;1.870;2022-10-03T04:30:33;101420.94;;;9.69;100.00
71361;BME280;59166;48.908;1.870;2022-10-03T04:36:14;101422.97;;;9.74;100.00
71361;BME280;59166;48.908;1.870;2022-10-03T04:41:27;101428.75;;;9.77;100.00
71361;BME280;59166;48.908;1.870;2022-10-03T04:46:37;101433.31;;;9.77;100.00
71361;BME280;59166;48.908;1.870;2022-10-03T04:51:49;101424.41;;;9.76;100.00
71361;BME280;59166;48.908;1.870;2022-10-03T04:56:58;101418.91;;;9.83;100.00
71361;BME280;59166;48.908;1.870;2022-10-03T05:02:08;101427.75;;;9.90;100.00
71361;BME280;59166;48.908;1.870;2022-10-03T05:07:17;101430.94;;;10.28;100.00
71361;BME280;59166;48.908;1.870;2022-10-03T05:12:30;101436.06;;;10.18;100.00
71361;BME280;59166;48.908;1.870;2022-10-03T05:17:43;101440.34;;;10.38;100.00
71361;BME280;59166;48.908;1.870;2022-10-03T05:22:54;101423.81;;;10.57;100.00
71361;BME280;59166;48.908;1.870;2022-10-03T05:28:15;101421.63;;;10.66;100.00
71361;BME280;59166;48.908;1.870;2022-10-03T05:33:23;101421.00;;;10.64;100.00
71361;BME280;59166;48.908;1.870;2022-10-03T05:44:15;101421.16;;;10.69;100.00
71361;BME280;59166;48.908;1.870;2022-10-03T05:49:53;101425.25;;;10.71;100.00
71361;BME280;59166;48.908;1.870;2022-10-03T05:55:26;101423.97;;;10.74;100.00
71361;BME280;59166;48.908;1.870;2022-10-03T06:00:39;101412.75;;;10.77;100.00
71361;BME280;59166;48.908;1.870;2022-10-03T06:06:06;101411.19;;;10.81;100.00
71361;BME280;59166;48.908;1.870;2022-10-03T06:16:43;101422.72;;;10.88;100.00
71361;BME280;59166;48.908;1.870;2022-10-03T06:50:38;101443.28;;;11.24;100.00
71361;BME280;59166;48.908;1.870;2022-10-03T06:55:53;101441.84;;;11.33;100.00
71361;BME280;59166;48.908;1.870;2022-10-03T07:01:26;101438.66;;;11.48;100.00
71361;BME280;59166;48.908;1.870;2022-10-03T07:07:06;101443.69;;;11.56;100.00
71361;BME280;59166;48.908;1.870;2022-10-03T07:12:50;101441.94;;;11.61;100.00
71361;BME280;59166;48.908;1.870;2022-10-03T07:18:22;101449.78;;;11.63;100.00
71361;BME280;59166;48.908;1.870;2022-10-03T07:23:53;101452.47;;;11.74;100.00
71361;BME280;59166;48.908;1.870;2022-10-03T07:29:16;101457.28;;;11.84;100.00
71361;BME280;59166;48.908;1.870;2022-10-03T07:40:18;101464.63;;;12.00;100.00
71361;BME280;59166;48.908;1.870;2022-10-03T07:45:29;101475.09;;;12.08;100.00
71361;BME280;59166;48.908;1.870;2022-10-03T07:50:47;101483.44;;;12.07;100.00
71361;BME280;59166;48.908;1.870;2022-10-03T07:55:58;101485.63;;;12.21;100.00
71361;BME280;59166;48.908;1.870;2022-10-03T08:01:33;101480.22;;;12.21;100.00
71361;BME280;59166;48.908;1.870;2022-10-03T08:06:39;101486.19;;;12.23;100.00
71361;BME280;59166;48.908;1.870;2022-10-03T08:22:57;101489.31;;;12.44;100.00
71361;BME280;59166;48.908;1.870;2022-10-03T08:28:29;101487.44;;;12.61;100.00
71361;BME280;59166;48.908;1.870;2022-10-03T08:34:09;101490.00;;;12.67;100.00
71361;BME280;59166;48.908;1.870;2022-10-03T08:39:33;101486.91;;;12.75;100.00
71361;BME280;59166;48.908;1.870;2022-10-03T08:45:18;101485.50;;;12.89;100.00
71361;BME280;59166;48.908;1.870;2022-10-03T08:50:47;101497.09;;;13.02;100.00
71361;BME280;59166;48.908;1.870;2022-10-03T08:55:56;101497.25;;;13.12;100.00
71361;BME280;59166;48.908;1.870;2022-10-03T09:01:34;101502.66;;;13.12;100.00
71361;BME280;59166;48.908;1.870;2022-10-03T09:06:55;101506.28;;;13.34;100.00
71361;BME280;59166;48.908;1.870;2022-10-03T09:12:20;101508.72;;;13.35;99.45
71361;BME280;59166;48.908;1.870;2022-10-03T09:23:37;101519.31;;;13.54;99.42
71361;BME280;59166;48.908;1.870;2022-10-03T09:40:43;101528.97;;;13.83;97.44
71361;BME280;59166;48.908;1.870;2022-10-03T09:46:14;101528.97;;;13.83;97.38
71361;BME280;59166;48.908;1.870;2022-10-03T09:51:36;101521.38;;;13.85;96.73
71361;BME280;59166;48.908;1.870;2022-10-03T09:57:11;101522.34;;;13.74;96.71
71361;BME280;59166;48.908;1.870;2022-10-03T10:02:36;101511.81;;;13.77;95.79
71361;BME280;59166;48.908;1.870;2022-10-03T10:08:16;101522.66;;;13.77;95.83
71361;BME280;59166;48.908;1.870;2022-10-03T10:25:06;101511.19;;;13.54;96.27
71361;BME280;59166;48.908;1.870;2022-10-03T10:30:21;101503.94;;;13.43;94.72
71361;BME280;59166;48.908;1.870;2022-10-03T10:41:38;101500.34;;;13.37;96.88
71361;BME280;59166;48.908;1.870;2022-10-03T10:47:10;101512.44;;;13.29;93.85
71361;BME280;59166;48.908;1.870;2022-10-03T10:52:38;101520.97;;;13.38;94.30
71361;BME280;59166;48.908;1.870;2022-10-03T11:04:04;101511.53;;;14.01;90.93
71361;BME280;59166;48.908;1.870;2022-10-03T11:09:33;101514.69;;;14.14;89.18
71361;BME280;59166;48.908;1.870;2022-10-03T11:15:29;101512.72;;;14.31;88.09
71361;BME280;59166;48.908;1.870;2022-10-03T11:21:01;101502.09;;;14.30;87.64
71361;BME280;59166;48.908;1.870;2022-10-03T11:26:34;101499.66;;;14.28;86.84
71361;BME280;59166;48.908;1.870;2022-10-03T11:32:24;101490.50;;;14.39;86.33
71361;BME280;59166;48.908;1.870;2022-10-03T11:37:42;101482.44;;;14.50;87.06
71361;BME280;59166;48.908;1.870;2022-10-03T11:42:54;101490.44;;;14.61;83.61
71361;BME280;59166;48.908;1.870;2022-10-03T11:53:33;101492.53;;;15.55;83.66
71361;BME280;59166;48.908;1.870;2022-10-03T11:58:53;101476.44;;;16.10;79.67
71361;BME280;59166;48.908;1.870;2022-10-03T12:04:02;101472.81;;;15.94;79.98
71361;BME280;59166;48.908;1.870;2022-10-03T12:09:16;101481.41;;;16.33;79.13
71361;BME280;59166;48.908;1.870;2022-10-03T12:14:25;101474.28;;;16.22;77.53
71361;BME280;59166;48.908;1.870;2022-10-03T12:19:32;101459.78;;;16.07;78.53
71361;BME280;59166;48.908;1.870;2022-10-03T12:24:35;101448.81;;;15.86;79.48
71361;BME280;59166;48.908;1.870;2022-10-03T12:29:43;101447.38;;;15.64;79.92
71361;BME280;59166;48.908;1.870;2022-10-03T12:34:56;101439.19;;;15.64;81.41
71361;BME280;59166;48.908;1.870;2022-10-03T12:40:03;101446.00;;;15.71;80.92
71361;BME280;59166;48.908;1.870;2022-10-03T12:45:14;101434.13;;;16.03;79.68
71361;BME280;59166;48.908;1.870;2022-10-03T12:50:34;101437.78;;;16.33;77.96
71361;BME280;59166;48.908;1.870;2022-10-03T12:55:40;101429.53;;;16.08;77.75
71361;BME280;59166;48.908;1.870;2022-10-03T13:00:55;101428.44;;;16.04;77.95
71361;BME280;59166;48.908;1.870;2022-10-03T13:06:37;101428.75;;;16.23;77.03
71361;BME280;59166;48.908;1.870;2022-10-03T13:11:49;101427.38;;;16.10;77.77
71361;BME280;59166;48.908;1.870;2022-10-03T13:22:27;101416.69;;;15.93;77.54
71361;BME280;59166;48.908;1.870;2022-10-03T13:27:36;101418.91;;;16.12;77.36
71361;BME280;59166;48.908;1.870;2022-10-03T13:32:42;101414.84;;;16.29;77.01
71361;BME280;59166;48.908;1.870;2022-10-03T13:38:05;101405.59;;;16.40;76.98
71361;BME280;59166;48.908;1.870;2022-10-03T13:43:12;101412.13;;;16.29;78.04
71361;BME280;59166;48.908;1.870;2022-10-03T13:48:18;101396.47;;;15.84;78.61
71361;BME280;59166;48.908;1.870;2022-10-03T13:53:30;101383.66;;;15.85;78.25
71361;BME280;59166;48.908;1.870;2022-10-03T13:58:41;101378.81;;;16.07;78.56
71361;BME280;59166;48.908;1.870;2022-10-03T14:03:53;101376.13;;;16.22;77.97
71361;BME280;59166;48.908;1.870;2022-10-03T14:09:15;101368.75;;;16.08;76.36
71361;BME280;59166;48.908;1.870;2022-10-03T14:14:48;101368.47;;;16.04;76.83
71361;BME280;59166;48.908;1.870;2022-10-03T14:20:03;101365.13;;;15.82;77.82
71361;BME280;59166;48.908;1.870;2022-10-03T14:25:19;101359.63;;;15.62;78.25
71361;BME280;59166;48.908;1.870;2022-10-03T14:30:24;101357.94;;;15.46;78.31
71361;BME280;59166;48.908;1.870;2022-10-03T14:35:41;101347.38;;;15.64;77.59
71361;BME280;59166;48.908;1.870;2022-10-03T14:40:48;101349.56;;;15.62;76.71
71361;BME280;59166;48.908;1.870;2022-10-03T14:46:09;101351.19;;;15.53;77.26
71361;BME280;59166;48.908;1.870;2022-10-03T14:51:15;101345.22;;;15.66;77.71
71361;BME280;59166;48.908;1.870;2022-10-03T14:56:20;101349.34;;;15.74;77.94
71361;BME280;59166;48.908;1.870;2022-10-03T15:01:24;101341.13;;;15.64;76.75
71361;BME280;59166;48.908;1.870;2022-10-03T15:06:49;101326.31;;;15.34;78.16
71361;BME280;59166;48.908;1.870;2022-10-03T15:11:55;101338.25;;;15.23;78.43
71361;BME280;59166;48.908;1.870;2022-10-03T15:17:00;101331.72;;;15.24;78.67
71361;BME280;59166;48.908;1.870;2022-10-03T15:22:11;101330.03;;;15.13;79.00
71361;BME280;59166;48.908;1.870;2022-10-03T15:27:19;101320.22;;;15.07;79.54
71361;BME280;59166;48.908;1.870;2022-10-03T15:32:24;101318.34;;;15.13;79.97
71361;BME280;59166;48.908;1.870;2022-10-03T15:37:29;101309.38;;;15.17;78.62
71361;BME280;59166;48.908;1.870;2022-10-03T15:42:44;101299.03;;;15.14;79.63
71361;BME280;59166;48.908;1.870;2022-10-03T15:47:46;101291.88;;;15.03;79.39
71361;BME280;59166;48.908;1.870;2022-10-03T15:52:50;101288.00;;;14.89;79.43
71361;BME280;59166;48.908;1.870;2022-10-03T15:57:58;101284.94;;;14.75;80.02
71361;BME280;59166;48.908;1.870;2022-10-03T16:03:15;101276.13;;;14.58;81.01
71361;BME280;59166;48.908;1.870;2022-10-03T16:08:20;101273.66;;;14.57;80.91
71361;BME280;59166;48.908;1.870;2022-10-03T16:13:29;101273.66;;;14.57;81.64
71361;BME280;59166;48.908;1.870;2022-10-03T16:18:45;101262.78;;;14.52;81.30
71361;BME280;59166;48.908;1.870;2022-10-03T16:24:14;101267.63;;;14.45;82.09
71361;BME280;59166;48.908;1.870;2022-10-03T16:29:20;101263.03;;;14.50;81.03
71361;BME280;59166;48.908;1.870;2022-10-03T16:34:23;101263.84;;;14.51;81.03
71361;BME280;59166;48.908;1.870;2022-10-03T16:39:28;101251.84;;;14.47;81.18
71361;BME280;59166;48.908;1.870;2022-10-03T16:44:37;101248.00;;;14.37;81.70
71361;BME280;59166;48.908;1.870;2022-10-03T16:49:42;101249.28;;;14.25;81.81
71361;BME280;59166;48.908;1.870;2022-10-03T16:54:44;101249.50;;;14.18;82.42
71361;BME280;59166;48.908;1.870;2022-10-03T16:59:48;101250.22;;;14.09;82.65
71361;BME280;59166;48.908;1.870;2022-10-03T17:04:52;101248.78;;;13.96;83.15
71361;BME280;59166;48.908;1.870;2022-10-03T17:09:56;101236.19;;;13.85;82.99
71361;BME280;59166;48.908;1.870;2022-10-03T17:15:03;101237.44;;;13.72;83.68
71361;BME280;59166;48.908;1.870;2022-10-03T17:20:10;101227.03;;;13.64;84.33
71361;BME280;59166;48.908;1.870;2022-10-03T17:25:30;101229.38;;;13.56;84.72
71361;BME280;59166;48.908;1.870;2022-10-03T17:30:41;101225.50;;;13.47;85.67
71361;BME280;59166;48.908;1.870;2022-10-03T17:35:48;101222.44;;;13.38;86.35
71361;BME280;59166;48.908;1.870;2022-10-03T17:41:09;101221.78;;;13.26;86.56
71361;BME280;59166;48.908;1.870;2022-10-03T17:46:17;101217.06;;;13.16;87.09
71361;BME280;59166;48.908;1.870;2022-10-03T17:51:33;101232.59;;;12.99;87.63
71361;BME280;59166;48.908;1.870;2022-10-03T17:56:40;101240.47;;;12.79;88.31
71361;BME280;59166;48.908;1.870;2022-10-03T18:01:49;101228.59;;;12.63;89.25
71361;BME280;59166;48.908;1.870;2022-10-03T18:06:52;101217.41;;;12.55;89.77
71361;BME280;59166;48.908;1.870;2022-10-03T18:12:07;101215.94;;;12.47;90.10
71361;BME280;59166;48.908;1.870;2022-10-03T18:17:13;101220.97;;;12.38;90.36
71361;BME280;59166;48.908;1.870;2022-10-03T18:22:17;101212.75;;;12.33;90.44
71361;BME280;59166;48.908;1.870;2022-10-03T18:27:39;101213.09;;;12.20;90.85
71361;BME280;59166;48.908;1.870;2022-10-03T18:32:46;101213.19;;;12.09;91.91
71361;BME280;59166;48.908;1.870;2022-10-03T18:37:53;101218.94;;;12.12;91.67
71361;BME280;59166;48.908;1.870;2022-10-03T18:42:55;101217.19;;;12.06;91.17
71361;BME280;59166;48.908;1.870;2022-10-03T18:48:05;101220.25;;;11.93;91.90
71361;BME280;59166;48.908;1.870;2022-10-03T18:53:14;101224.75;;;11.71;94.14
71361;BME280;59166;48.908;1.870;2022-10-03T18:58:20;101240.41;;;11.52;94.89
71361;BME280;59166;48.908;1.870;2022-10-03T19:03:30;101235.78;;;11.36;96.04
71361;BME280;59166;48.908;1.870;2022-10-03T19:08:36;101228.97;;;11.33;95.43
71361;BME280;59166;48.908;1.870;2022-10-03T19:13:43;101228.88;;;11.28;95.93
71361;BME280;59166;48.908;1.870;2022-10-03T19:18:57;101227.13;;;11.22;96.59
71361;BME280;59166;48.908;1.870;2022-10-03T19:24:07;101236.63;;;11.25;96.25
71361;BME280;59166;48.908;1.870;2022-10-03T19:29:13;101229.50;;;11.19;96.76
71361;BME280;59166;48.908;1.870;2022-10-03T19:34:37;101233.50;;;11.16;97.87
71361;BME280;59166;48.908;1.870;2022-10-03T19:39:38;101223.34;;;11.07;98.27
71361;BME280;59166;48.908;1.870;2022-10-03T19:44:39;101232.28;;;11.07;97.82
71361;BME280;59166;48.908;1.870;2022-10-03T19:49:52;101232.16;;;11.02;98.51
71361;BME280;59166;48.908;1.870;2022-10-03T19:55:08;101224.53;;;10.99;97.85
71361;BME280;59166;48.908;1.870;2022-10-03T20:00:35;101229.84;;;10.94;98.47
71361;BME280;59166;48.908;1.870;2022-10-03T20:05:42;101235.13;;;10.89;99.37
71361;BME280;59166;48.908;1.870;2022-10-03T20:11:05;101241.50;;;10.83;100.00
71361;BME280;59166;48.908;1.870;2022-10-03T20:16:13;101232.72;;;10.76;100.00
71361;BME280;59166;48.908;1.870;2022-10-03T20:21:25;101238.22;;;10.69;100.00
71361;BME280;59166;48.908;1.870;2022-10-03T20:26:32;101237.88;;;10.66;100.00
71361;BME280;59166;48.908;1.870;2022-10-03T20:31:36;101238.69;;;10.66;100.00
71361;BME280;59166;48.908;1.870;2022-10-03T20:36:41;101244.19;;;10.71;99.90
71361;BME280;59166;48.908;1.870;2022-10-03T20:41:54;101240.44;;;10.72;98.75
71361;BME280;59166;48.908;1.870;2022-10-03T20:47:02;101234.91;;;10.67;98.15
71361;BME280;59166;48.908;1.870;2022-10-03T20:52:14;101221.88;;;10.64;98.55
71361;BME280;59166;48.908;1.870;2022-10-03T20:57:17;101212.94;;;10.64;98.86
71361;BME280;59166;48.908;1.870;2022-10-03T21:02:26;101220.25;;;10.63;99.26
71361;BME280;59166;48.908;1.870;2022-10-03T21:07:37;101219.66;;;10.61;99.83
71361;BME280;59166;48.908;1.870;2022-10-03T21:12:42;101218.13;;;10.54;99.26
71361;BME280;59166;48.908;1.870;2022-10-03T21:17:46;101204.06;;;10.52;99.11
71361;BME280;59166;48.908;1.870;2022-10-03T21:22:51;101211.25;;;10.46;99.21
71361;BME280;59166;48.908;1.870;2022-10-03T21:27:55;101207.47;;;10.47;99.03
71361;BME280;59166;48.908;1.870;2022-10-03T21:32:59;101203.00;;;10.41;98.48
71361;BME280;59166;48.908;1.870;2022-10-03T21:38:17;101189.03;;;10.44;97.22
71361;BME280;59166;48.908;1.870;2022-10-03T21:43:30;101192.69;;;10.38;97.07
71361;BME280;59166;48.908;1.870;2022-10-03T21:49:29;101188.38;;;10.25;96.69
71361;BME280;59166;48.908;1.870;2022-10-03T21:54:44;101184.25;;;10.23;96.30
71361;BME280;59166;48.908;1.870;2022-10-03T22:00:09;101184.84;;;10.13;96.34
71361;BME280;59166;48.908;1.870;2022-10-03T22:05:17;101178.50;;;10.08;96.04
71361;BME280;59166;48.908;1.870;2022-10-03T22:10:26;101178.16;;;10.04;95.79
71361;BME280;59166;48.908;1.870;2022-10-03T22:15:48;101181.66;;;9.93;96.41
71361;BME280;59166;48.908;1.870;2022-10-03T22:20:55;101173.47;;;9.88;95.79
71361;BME280;59166;48.908;1.870;2022-10-03T22:26:12;101158.22;;;9.82;95.24
71361;BME280;59166;48.908;1.870;2022-10-03T22:31:22;101158.22;;;9.82;97.39
71361;BME280;59166;48.908;1.870;2022-10-03T22:36:27;101151.41;;;9.79;96.30
71361;BME280;59166;48.908;1.870;2022-10-03T22:41:30;101146.38;;;9.71;95.92
71361;BME280;59166;48.908;1.870;2022-10-03T22:46:32;101131.81;;;9.61;95.64
71361;BME280;59166;48.908;1.870;2022-10-03T22:51:34;101126.63;;;9.59;96.98
71361;BME280;59166;48.908;1.870;2022-10-03T22:56:43;101122.06;;;9.60;96.07
71361;BME280;59166;48.908;1.870;2022-10-03T23:01:46;101109.06;;;9.57;96.94
71361;BME280;59166;48.908;1.870;2022-10-03T23:07:09;101100.03;;;9.51;96.33
71361;BME280;59166;48.908;1.870;2022-10-03T23:12:16;101095.81;;;9.44;97.11
71361;BME280;59166;48.908;1.870;2022-10-03T23:17:37;101087.00;;;9.37;96.36
71361;BME280;59166;48.908;1.870;2022-10-03T23:22:48;101077.97;;;9.31;96.67
71361;BME280;59166;48.908;1.870;2022-10-03T23:28:11;101066.00;;;9.27;96.91
71361;BME280;59166;48.908;1.870;2022-10-03T23:33:47;101054.19;;;9.28;97.96
71361;BME280;59166;48.908;1.870;2022-10-03T23:38:56;101064.13;;;9.27;97.81
71361;BME280;59166;48.908;1.870;2022-10-03T23:43:59;101058.03;;;9.20;96.86
71361;BME280;59166;48.908;1.870;2022-10-03T23:49:00;101054.16;;;9.16;97.45
71361;BME280;59166;48.908;1.870;2022-10-03T23:54:03;101055.44;;;9.14;97.43
71361;BME280;59166;48.908;1.870;2022-10-03T23:59:16;101042.66;;;9.09;97.06
